createdAt,value
2022-11-08T00:00:21.807Z,10.73
2022-11-08T00:02:48.930Z,9.73
2022-11-08T00:05:35.865Z,11.20
2022-11-08T00:08:23.978Z,10.32
2022-11-08T00:11:10.876Z,10.38
2022-11-08T00:13:57.747Z,10.18
2022-11-08T00:16:25.512Z,10.10
2022-11-08T00:18:52.549Z,11.05
2022-11-08T00:21:19.616Z,10.50
2022-11-08T00:23:46.937Z,9.90
2022-11-08T00:26:13.920Z,10.13
2022-11-08T00:28:40.972Z,9.18
2022-11-08T00:31:08.118Z,10.40
2022-11-08T00:33:35.183Z,9.68
2022-11-08T00:36:02.519Z,9.68
2022-11-08T00:38:29.770Z,10.05
2022-11-08T00:40:56.857Z,10.55
2022-11-08T00:43:23.914Z,9.88
2022-11-08T00:45:50.929Z,9.93
2022-11-08T00:48:18.072Z,9.75
2022-11-08T00:50:45.344Z,9.27
2022-11-08T00:53:12.374Z,9.50
2022-11-08T00:55:42.366Z,9.63
2022-11-08T00:58:09.369Z,9.02
2022-11-08T01:00:36.482Z,9.18
2022-11-08T01:03:19.315Z,9.88
2022-11-08T01:05:47.619Z,9.25
2022-11-08T01:08:15.013Z,9.13
2022-11-08T01:10:43.825Z,8.43
2022-11-08T01:13:11.844Z,8.95
2022-11-08T01:15:40.910Z,8.40
2022-11-08T01:18:09.725Z,9.20
2022-11-08T01:20:40.972Z,8.70
2022-11-08T01:23:08.982Z,9.13
2022-11-08T01:25:40.908Z,8.00
2022-11-08T01:28:07.948Z,8.07
2022-11-08T01:30:39.504Z,8.45
2022-11-08T01:33:07.265Z,8.32
2022-11-08T01:35:35.903Z,9.25
2022-11-08T01:38:04.022Z,8.15
2022-11-08T01:40:32.008Z,8.43
2022-11-08T01:42:59.066Z,8.38
2022-11-08T01:46:05.823Z,7.97
2022-11-08T01:48:32.867Z,8.13
2022-11-08T01:51:00.546Z,8.10
2022-11-08T01:53:29.516Z,8.77
2022-11-08T01:55:57.314Z,7.35
2022-11-08T01:58:28.859Z,7.78
2022-11-08T02:00:58.076Z,8.48
2022-11-08T02:03:25.517Z,8.38
2022-11-08T02:05:52.630Z,7.28
2022-11-08T02:08:34.835Z,8.32
2022-11-08T02:11:02.944Z,7.82
2022-11-08T02:13:31.988Z,7.68
2022-11-08T02:15:59.552Z,7.68
2022-11-08T02:18:29.289Z,8.00
2022-11-08T02:21:11.918Z,7.78
2022-11-08T02:23:57.479Z,7.63
2022-11-08T02:26:29.362Z,7.60
2022-11-08T02:28:56.389Z,7.20
2022-11-08T02:31:23.542Z,7.38
2022-11-08T02:33:50.706Z,8.02
2022-11-08T02:36:25.240Z,7.68
2022-11-08T02:38:55.488Z,8.13
2022-11-08T02:41:22.537Z,7.80
2022-11-08T02:43:49.550Z,7.63
2022-11-08T02:46:16.658Z,8.05
2022-11-08T02:48:43.634Z,6.85
2022-11-08T02:51:10.650Z,7.28
2022-11-08T02:53:37.699Z,6.75
2022-11-08T02:56:05.112Z,7.47
2022-11-08T02:58:32.185Z,7.32
2022-11-08T03:00:59.353Z,6.90
2022-11-08T03:03:26.453Z,6.65
2022-11-08T03:05:53.501Z,7.30
2022-11-08T03:08:21.103Z,7.20
2022-11-08T03:10:48.370Z,6.53
2022-11-08T03:13:15.357Z,6.65
2022-11-08T03:15:42.506Z,6.75
2022-11-08T03:18:09.511Z,6.60
2022-11-08T03:20:36.586Z,6.35
2022-11-08T03:23:07.092Z,7.22
2022-11-08T03:28:03.381Z,6.82
2022-11-08T03:30:30.464Z,6.70
2022-11-08T03:32:57.486Z,6.70
2022-11-08T03:35:25.050Z,6.43
2022-11-08T03:37:56.839Z,7.05
2022-11-08T03:40:25.114Z,7.13
2022-11-08T03:42:52.187Z,6.55
2022-11-08T03:45:19.576Z,5.80
2022-11-08T03:47:48.063Z,6.80
2022-11-08T03:50:16.784Z,5.80
2022-11-08T03:52:49.557Z,6.25
2022-11-08T03:55:18.626Z,6.03
2022-11-08T03:57:47.178Z,6.32
2022-11-08T04:00:16.730Z,6.63
2022-11-08T04:02:44.008Z,6.20
2022-11-08T04:05:12.605Z,5.68
2022-11-08T04:07:40.180Z,6.03
2022-11-08T04:10:09.045Z,6.32
2022-11-08T04:13:02.749Z,5.88
2022-11-08T04:15:30.832Z,5.72
2022-11-08T04:18:19.298Z,6.32
2022-11-08T04:21:08.375Z,5.90
2022-11-08T04:23:37.128Z,6.03
2022-11-08T04:26:07.113Z,6.15
2022-11-08T04:28:36.616Z,5.05
2022-11-08T04:31:06.886Z,5.40
2022-11-08T04:33:34.247Z,6.20
2022-11-08T04:36:04.077Z,5.85
2022-11-08T04:38:32.493Z,6.00
2022-11-08T04:41:07.289Z,6.15
2022-11-08T04:43:35.023Z,5.60
2022-11-08T04:46:04.333Z,6.22
2022-11-08T04:48:31.961Z,5.07
2022-11-08T04:51:08.182Z,5.40
2022-11-08T04:53:35.253Z,4.78
2022-11-08T04:56:08.213Z,5.55
2022-11-08T04:58:37.296Z,5.28
2022-11-08T05:01:06.178Z,5.55
2022-11-08T05:03:33.396Z,5.75
2022-11-08T05:06:06.154Z,5.53
2022-11-08T05:08:33.678Z,5.88
2022-11-08T05:11:06.328Z,5.60
2022-11-08T05:13:33.954Z,5.47
2022-11-08T05:16:03.506Z,5.25
2022-11-08T05:18:32.116Z,5.00
2022-11-08T05:21:20.598Z,5.15
2022-11-08T05:23:49.144Z,5.45
2022-11-08T05:26:18.346Z,5.25
2022-11-08T05:28:45.672Z,5.10
2022-11-08T05:31:13.075Z,4.82
2022-11-08T05:33:40.208Z,5.50
2022-11-08T05:36:10.699Z,5.38
2022-11-08T05:41:06.963Z,6.63
2022-11-08T05:43:34.099Z,5.70
2022-11-08T05:46:01.217Z,5.82
2022-11-08T05:48:28.304Z,6.45
2022-11-08T05:50:55.827Z,6.43
2022-11-08T05:53:23.355Z,5.75
2022-11-08T05:55:50.415Z,6.13
2022-11-08T05:58:17.492Z,6.32
2022-11-08T06:00:44.539Z,5.97
2022-11-08T06:03:11.888Z,6.22
2022-11-08T06:05:38.965Z,7.07
2022-11-08T06:08:06.093Z,6.25
2022-11-08T06:10:33.134Z,6.25
2022-11-08T06:13:03.512Z,6.95
2022-11-08T06:15:30.484Z,7.50
2022-11-08T06:18:02.752Z,6.68
2022-11-08T06:20:30.041Z,6.63
2022-11-08T06:22:57.527Z,7.55
2022-11-08T06:25:24.577Z,6.70
2022-11-08T06:27:51.664Z,7.10
2022-11-08T06:30:18.751Z,7.57
2022-11-08T06:32:45.827Z,6.75
2022-11-08T06:35:12.811Z,7.35
2022-11-08T06:37:39.929Z,7.40
2022-11-08T06:40:07.911Z,10.57
2022-11-08T06:42:34.934Z,12.35
2022-11-08T06:45:02.086Z,11.48
2022-11-08T06:47:29.134Z,13.20
2022-11-08T06:49:56.195Z,14.35
2022-11-08T06:52:23.499Z,13.30
2022-11-08T06:54:50.555Z,14.02
2022-11-08T06:57:17.603Z,11.68
2022-11-08T06:59:52.766Z,13.35
2022-11-08T07:02:19.910Z,13.43
2022-11-08T07:04:47.181Z,13.27
2022-11-08T07:07:14.398Z,13.95
2022-11-08T07:09:41.642Z,13.10
2022-11-08T07:12:09.999Z,14.98
2022-11-08T07:14:37.749Z,14.32
2022-11-08T07:17:04.751Z,15.15
2022-11-08T07:19:31.737Z,14.25
2022-11-08T07:21:58.781Z,13.10
2022-11-08T07:24:25.894Z,14.77
2022-11-08T07:26:53.051Z,13.40
2022-11-08T07:29:20.174Z,14.43
2022-11-08T07:31:47.482Z,13.85
2022-11-08T07:34:14.701Z,14.18
2022-11-08T07:36:41.747Z,14.63
2022-11-08T07:39:09.297Z,14.68
2022-11-08T07:41:36.742Z,14.80
2022-11-08T07:44:03.814Z,16.05
2022-11-08T07:46:30.885Z,15.10
2022-11-08T07:48:57.896Z,15.00
2022-11-08T07:51:25.575Z,14.90
2022-11-08T07:53:52.639Z,15.35
2022-11-08T07:56:19.683Z,15.98
2022-11-08T07:58:46.787Z,16.17
2022-11-08T08:01:13.990Z,15.65
2022-11-08T08:03:41.846Z,15.68
2022-11-08T08:06:08.938Z,16.45
2022-11-08T08:08:36.140Z,15.43
2022-11-08T08:11:05.189Z,15.50
2022-11-08T08:13:32.330Z,16.15
2022-11-08T08:16:01.117Z,15.95
2022-11-08T08:18:29.902Z,15.70
2022-11-08T08:20:56.973Z,15.30
2022-11-08T08:23:24.280Z,15.10
2022-11-08T08:25:51.407Z,14.43
2022-11-08T08:28:19.651Z,14.02
2022-11-08T08:30:46.714Z,13.93
2022-11-08T08:33:32.489Z,13.45
2022-11-08T08:36:02.009Z,13.10
2022-11-08T08:38:31.329Z,13.88
2022-11-08T08:40:59.252Z,12.77
2022-11-08T08:43:27.775Z,13.15
2022-11-08T08:45:59.069Z,12.93
2022-11-08T08:48:26.200Z,13.15
2022-11-08T08:50:53.343Z,11.65
2022-11-08T08:53:21.089Z,12.68
2022-11-08T08:55:48.532Z,11.90
2022-11-08T08:58:15.663Z,11.88
2022-11-08T09:03:33.611Z,10.32
2022-11-08T09:06:01.379Z,11.25
2022-11-08T09:08:29.336Z,10.73
2022-11-08T09:10:58.040Z,11.00
2022-11-08T09:13:26.542Z,11.10
2022-11-08T09:15:54.466Z,12.13
2022-11-08T09:18:21.595Z,10.35
2022-11-08T09:20:48.991Z,10.30
2022-11-08T09:23:17.917Z,11.85
2022-11-08T09:25:45.385Z,10.63
2022-11-08T09:28:12.766Z,10.43
2022-11-08T09:30:42.502Z,9.80
2022-11-08T09:33:09.669Z,10.63
2022-11-08T09:35:37.811Z,9.10
2022-11-08T09:38:04.858Z,10.10
2022-11-08T09:40:43.248Z,9.70
2022-11-08T09:43:52.061Z,11.10
2022-11-08T09:46:28.681Z,9.35
2022-11-08T09:48:58.161Z,11.00
2022-11-08T09:51:25.592Z,11.53
2022-11-08T09:53:56.527Z,9.20
2022-11-08T09:56:31.842Z,10.00
2022-11-08T09:59:24.706Z,10.52
2022-11-08T10:01:51.792Z,9.27
2022-11-08T10:04:22.575Z,9.70
2022-11-08T10:07:29.319Z,9.10
2022-11-08T10:10:34.067Z,9.10
2022-11-08T10:13:37.837Z,9.23
2022-11-08T10:16:39.103Z,8.73
2022-11-08T10:19:38.325Z,8.02
2022-11-08T10:22:22.554Z,9.35
2022-11-08T10:25:02.012Z,8.75
2022-11-08T10:27:42.271Z,9.17
2022-11-08T10:30:22.501Z,8.77
2022-11-08T10:32:56.107Z,9.18
2022-11-08T10:35:41.326Z,8.25
2022-11-08T10:38:18.808Z,9.05
2022-11-08T10:40:59.522Z,8.90
2022-11-08T10:43:43.539Z,8.02
2022-11-08T10:46:48.892Z,8.63
2022-11-08T10:49:20.684Z,8.85
2022-11-08T10:51:51.538Z,9.18
2022-11-08T10:54:52.476Z,7.38
2022-11-08T10:57:42.940Z,7.68
2022-11-08T11:05:30.311Z,7.97
2022-11-08T11:08:13.761Z,7.40
2022-11-08T11:10:46.475Z,8.05
2022-11-08T11:16:05.713Z,7.88
2022-11-08T11:18:45.680Z,7.97
2022-11-08T11:21:16.959Z,7.47
2022-11-08T11:24:16.618Z,7.95
2022-11-08T11:26:50.070Z,7.78
2022-11-08T11:29:38.707Z,8.35
2022-11-08T11:32:33.310Z,7.43
2022-11-08T11:35:06.725Z,7.10
2022-11-08T11:37:48.594Z,6.95
2022-11-08T11:40:34.628Z,7.25
2022-11-08T11:43:27.628Z,7.20
2022-11-08T11:46:26.562Z,7.63
2022-11-08T11:49:01.492Z,7.60
2022-11-08T11:51:30.493Z,7.10
2022-11-08T11:53:58.499Z,7.72
2022-11-08T11:56:44.041Z,8.45
2022-11-08T11:59:49.188Z,7.93
2022-11-08T12:02:55.925Z,8.32
2022-11-08T12:06:03.148Z,7.50
2022-11-08T12:09:00.562Z,7.95
2022-11-08T12:11:42.304Z,8.82
2022-11-08T12:14:34.654Z,8.10
2022-11-08T12:17:42.884Z,8.35
2022-11-08T12:20:46.632Z,9.18
2022-11-08T12:23:48.058Z,9.23
2022-11-08T12:26:50.357Z,8.98
2022-11-08T12:29:27.661Z,9.50
2022-11-08T12:32:26.621Z,10.10
2022-11-08T12:35:31.085Z,9.70
2022-11-08T12:38:13.224Z,9.77
2022-11-08T12:41:04.688Z,9.65
2022-11-08T12:44:12.087Z,9.95
2022-11-08T12:46:53.752Z,9.63
2022-11-08T12:49:43.746Z,8.88
2022-11-08T12:52:41.589Z,9.45
2022-11-08T12:55:30.613Z,9.13
2022-11-08T12:58:00.957Z,10.30
2022-11-08T13:03:27.891Z,8.55
2022-11-08T13:06:10.251Z,9.02
2022-11-08T13:08:59.597Z,8.98
2022-11-08T13:11:49.135Z,8.15
2022-11-08T13:14:18.238Z,8.73
2022-11-08T13:17:09.292Z,9.73
2022-11-08T13:20:04.728Z,8.45
2022-11-08T13:22:44.151Z,9.18
2022-11-08T13:25:35.097Z,8.50
2022-11-08T13:28:02.824Z,8.70
2022-11-08T13:30:36.265Z,9.02
2022-11-08T13:33:22.176Z,8.48
2022-11-08T13:36:28.950Z,9.32
2022-11-08T13:39:23.848Z,9.32
2022-11-08T13:42:21.944Z,8.90
2022-11-08T13:45:00.486Z,9.65
2022-11-08T13:47:51.197Z,9.93
2022-11-08T13:50:45.274Z,9.45
2022-11-08T13:53:45.017Z,9.60
2022-11-08T13:56:25.845Z,9.13
2022-11-08T13:58:53.120Z,8.95
2022-11-08T14:02:00.268Z,9.50
2022-11-08T14:04:40.527Z,9.95
2022-11-08T14:07:26.169Z,9.45
2022-11-08T14:10:11.938Z,8.52
2022-11-08T14:13:05.943Z,9.55
2022-11-08T14:15:46.717Z,10.13
2022-11-08T14:18:28.781Z,8.85
2022-11-08T14:20:56.358Z,8.52
2022-11-08T14:23:34.365Z,8.65
2022-11-08T14:26:05.770Z,8.82
2022-11-08T14:28:36.385Z,9.43
2022-11-08T14:31:07.433Z,9.52
2022-11-08T14:33:42.623Z,9.18
2022-11-08T14:36:16.178Z,8.35
2022-11-08T14:39:03.079Z,9.85
2022-11-08T14:41:32.069Z,9.60
2022-11-08T14:44:01.543Z,8.48
2022-11-08T14:46:41.669Z,9.48
2022-11-08T14:49:30.366Z,9.63
2022-11-08T14:52:22.780Z,9.43
2022-11-08T14:55:02.091Z,9.52
2022-11-08T14:57:46.749Z,9.45
2022-11-08T15:00:22.559Z,9.65
2022-11-08T15:02:52.731Z,10.30
2022-11-08T15:05:45.541Z,9.60
2022-11-08T15:08:34.332Z,9.32
2022-11-08T15:11:05.717Z,10.55
2022-11-08T15:13:40.322Z,9.85
2022-11-08T15:16:08.540Z,9.90
2022-11-08T15:18:41.139Z,10.63
2022-11-08T15:21:29.477Z,9.88
2022-11-08T15:24:14.933Z,9.80
2022-11-08T15:27:04.680Z,10.70
2022-11-08T15:30:00.605Z,9.80
2022-11-08T15:32:33.421Z,9.90
2022-11-08T15:35:00.530Z,9.52
2022-11-08T15:37:37.062Z,10.50
2022-11-08T15:40:25.507Z,9.95
2022-11-08T15:42:53.270Z,10.95
2022-11-08T15:45:26.160Z,10.80
2022-11-08T15:48:00.072Z,10.25
2022-11-08T15:50:32.197Z,11.02
2022-11-08T15:53:01.853Z,10.30
2022-11-08T15:55:40.730Z,10.07
2022-11-08T15:58:28.253Z,10.00
2022-11-08T16:00:56.871Z,9.68
2022-11-08T16:03:24.469Z,10.20
2022-11-08T16:05:51.671Z,11.00
2022-11-08T16:08:20.974Z,10.63
2022-11-08T16:10:51.673Z,10.82
2022-11-08T16:16:06.029Z,11.55
2022-11-08T16:18:34.439Z,11.07
2022-11-08T16:21:02.010Z,10.27
2022-11-08T16:23:29.089Z,10.98
2022-11-08T16:25:57.686Z,10.68
2022-11-08T16:28:29.927Z,10.43
2022-11-08T16:30:57.810Z,10.52
2022-11-08T16:33:27.781Z,10.02
2022-11-08T16:35:56.292Z,11.38
2022-11-08T16:38:27.395Z,11.18
2022-11-08T16:40:55.594Z,13.23
2022-11-08T16:43:22.776Z,12.23
2022-11-08T16:46:04.955Z,12.98
2022-11-08T16:48:36.715Z,11.35
2022-11-08T16:51:06.592Z,13.02
2022-11-08T16:53:35.200Z,12.40
2022-11-08T16:56:02.342Z,12.38
2022-11-08T16:58:29.568Z,12.00
2022-11-08T17:00:57.743Z,12.93
2022-11-08T17:03:29.702Z,12.10
2022-11-08T17:05:58.151Z,13.00
2022-11-08T17:08:25.906Z,13.75
2022-11-08T17:10:53.857Z,13.80
2022-11-08T17:13:21.890Z,12.85
2022-11-08T17:15:50.313Z,13.18
2022-11-08T17:18:21.157Z,13.38
2022-11-08T17:20:49.429Z,12.90
2022-11-08T17:23:17.822Z,12.82
2022-11-08T17:25:45.012Z,13.20
2022-11-08T17:28:13.022Z,13.35
2022-11-08T17:30:44.397Z,11.93
2022-11-08T17:33:13.279Z,12.75
2022-11-08T17:35:43.893Z,14.20
2022-11-08T17:38:12.534Z,13.00
2022-11-08T17:40:42.396Z,11.57
2022-11-08T17:43:09.691Z,12.77
2022-11-08T17:45:36.795Z,12.15
2022-11-08T17:48:03.851Z,12.40
2022-11-08T17:50:30.835Z,12.57
2022-11-08T17:52:57.892Z,12.25
2022-11-08T17:55:24.934Z,12.57
2022-11-08T17:57:52.117Z,14.00
2022-11-08T18:00:19.377Z,11.73
2022-11-08T18:02:46.639Z,12.80
2022-11-08T18:05:13.627Z,12.88
2022-11-08T18:07:40.694Z,13.25
2022-11-08T18:10:09.306Z,13.02
2022-11-08T18:12:37.197Z,12.73
2022-11-08T18:15:06.279Z,13.95
2022-11-08T18:17:33.300Z,12.88
2022-11-08T18:20:00.338Z,12.60
2022-11-08T18:22:27.399Z,12.45
2022-11-08T18:24:54.418Z,12.95
2022-11-08T18:27:21.505Z,13.07
2022-11-08T18:29:48.635Z,13.05
2022-11-08T18:32:15.664Z,12.52
2022-11-08T18:34:42.743Z,12.50
2022-11-08T18:37:09.847Z,12.98
2022-11-08T18:39:36.880Z,13.02
2022-11-08T18:42:04.020Z,13.00
2022-11-08T18:44:31.055Z,10.90
2022-11-08T18:46:58.556Z,13.20
2022-11-08T18:49:25.733Z,13.10
2022-11-08T18:51:53.808Z,12.90
2022-11-08T18:54:20.932Z,12.55
2022-11-08T18:56:48.027Z,12.52
2022-11-08T18:59:15.162Z,12.68
2022-11-08T19:01:42.308Z,12.45
2022-11-08T19:04:09.696Z,12.38
2022-11-08T19:06:36.820Z,12.27
2022-11-08T19:09:04.454Z,12.77
2022-11-08T19:11:32.508Z,13.18
2022-11-08T19:14:01.802Z,12.10
2022-11-08T19:16:29.166Z,13.15
2022-11-08T19:18:56.261Z,12.15
2022-11-08T19:21:25.899Z,12.93
2022-11-08T19:23:58.857Z,12.93
2022-11-08T19:26:27.845Z,13.18
2022-11-08T19:28:55.952Z,11.90
2022-11-08T19:31:25.559Z,13.38
2022-11-08T19:33:54.129Z,12.43
2022-11-08T19:36:24.031Z,13.25
2022-11-08T19:38:53.540Z,11.63
2022-11-08T19:41:22.760Z,12.83
2022-11-08T19:43:50.564Z,12.20
2022-11-08T19:46:20.553Z,12.23
2022-11-08T19:48:49.317Z,11.15
2022-11-08T19:51:19.923Z,13.23
2022-11-08T19:53:47.367Z,13.50
2022-11-08T19:56:19.475Z,11.82
2022-11-08T19:58:47.215Z,12.75
2022-11-08T20:01:23.086Z,12.32
2022-11-08T20:03:50.941Z,12.73
2022-11-08T20:06:20.126Z,13.00
2022-11-08T20:08:48.757Z,12.07
2022-11-08T20:11:19.149Z,12.77
2022-11-08T20:16:16.629Z,12.25
2022-11-08T20:21:12.090Z,12.18
2022-11-08T20:23:39.939Z,12.30
2022-11-08T20:26:10.334Z,12.48
2022-11-08T20:31:12.012Z,12.52
2022-11-08T20:33:40.342Z,14.02
2022-11-08T20:36:12.936Z,12.48
2022-11-08T20:38:40.523Z,12.68
2022-11-08T20:41:11.212Z,11.30
2022-11-08T20:43:42.920Z,12.68
2022-11-08T20:46:12.698Z,12.40
2022-11-08T20:48:42.850Z,12.93
2022-11-08T20:51:15.381Z,13.30
2022-11-08T20:53:42.807Z,11.95
2022-11-08T20:56:14.692Z,12.55
2022-11-08T20:58:43.363Z,12.35
2022-11-08T21:01:13.566Z,11.80
2022-11-08T21:03:41.167Z,12.25
2022-11-08T21:06:10.307Z,12.45
2022-11-08T21:11:27.998Z,11.77
2022-11-08T21:13:55.088Z,12.57
2022-11-08T21:16:31.959Z,12.35
2022-11-08T21:19:06.008Z,12.85
2022-11-08T21:21:33.378Z,11.80
2022-11-08T21:24:00.459Z,10.93
2022-11-08T21:26:27.757Z,11.40
2022-11-08T21:28:55.019Z,11.98
2022-11-08T21:31:22.116Z,11.88
2022-11-08T21:33:49.322Z,11.65
2022-11-08T21:36:17.500Z,11.27
2022-11-08T21:38:45.186Z,11.15
2022-11-08T21:41:12.430Z,11.70
2022-11-08T21:43:44.224Z,11.75
2022-11-08T21:46:21.597Z,10.82
2022-11-08T21:48:54.297Z,11.75
2022-11-08T21:51:21.430Z,12.82
2022-11-08T21:53:55.961Z,11.65
2022-11-08T21:56:36.707Z,12.23
2022-11-08T22:01:31.392Z,11.27
2022-11-08T22:03:59.965Z,10.80
2022-11-08T22:06:29.324Z,11.18
2022-11-08T22:08:56.624Z,12.07
2022-11-08T22:11:23.863Z,11.82
2022-11-08T22:13:50.985Z,10.80
2022-11-08T22:16:18.079Z,11.13
2022-11-08T22:21:38.595Z,11.25
2022-11-08T22:24:18.385Z,11.70
2022-11-08T22:26:46.121Z,11.20
2022-11-08T22:29:13.503Z,11.10
2022-11-08T22:31:40.775Z,11.90
2022-11-08T22:34:08.683Z,11.52
2022-11-08T22:36:42.894Z,10.82
2022-11-08T22:39:16.672Z,10.48
2022-11-08T22:41:44.720Z,10.75
2022-11-08T22:44:12.836Z,11.30
2022-11-08T22:46:44.752Z,10.50
2022-11-08T22:49:14.976Z,10.95
2022-11-08T22:51:42.981Z,11.13
2022-11-08T22:54:10.602Z,11.20
2022-11-08T22:56:38.318Z,10.60
2022-11-08T22:59:05.531Z,10.10
2022-11-08T23:01:32.902Z,10.48
2022-11-08T23:04:00.102Z,10.95
2022-11-08T23:06:27.413Z,10.98
2022-11-08T23:08:54.504Z,10.55
2022-11-08T23:11:41.397Z,10.35
2022-11-08T23:14:36.480Z,11.32
2022-11-08T23:17:04.386Z,9.75
2022-11-08T23:19:51.307Z,10.88
2022-11-08T23:22:38.279Z,11.05
2022-11-08T23:25:05.722Z,10.00
2022-11-08T23:27:52.654Z,10.38
2022-11-08T23:30:39.819Z,10.05
2022-11-08T23:33:07.293Z,10.18
2022-11-08T23:35:34.424Z,10.52
2022-11-08T23:38:01.495Z,10.55
2022-11-08T23:40:48.455Z,10.48
2022-11-08T23:43:39.669Z,10.32
2022-11-08T23:46:09.557Z,9.77
2022-11-08T23:48:37.587Z,9.95
2022-11-08T23:51:05.990Z,10.00
2022-11-08T23:53:34.695Z,10.13
2022-11-08T23:56:01.734Z,9.40
2022-11-08T23:58:28.830Z,9.57
